createdAt,value
2022-11-24T00:01:15.593Z,96209.81
2022-11-24T00:03:43.978Z,96206.63
2022-11-24T00:06:13.329Z,96223.66
2022-11-24T00:08:42.948Z,96214.03
2022-11-24T00:11:12.380Z,96214.03
2022-11-24T00:13:40.610Z,96223.94
2022-11-24T00:16:11.063Z,96220.28
2022-11-24T00:18:42.081Z,96218.34
2022-11-24T00:21:10.243Z,96219.91
2022-11-24T00:23:38.725Z,96228.41
2022-11-24T00:26:08.622Z,96217.78
2022-11-24T00:28:37.432Z,96223.00
2022-11-24T00:31:06.680Z,96229.31
2022-11-24T00:33:34.820Z,96237.81
2022-11-24T00:36:04.280Z,96243.59
2022-11-24T00:38:32.274Z,96247.78
2022-11-24T00:41:00.284Z,96245.63
2022-11-24T00:43:28.333Z,96250.91
2022-11-24T00:45:56.390Z,96257.28
2022-11-24T00:48:24.613Z,96274.28
2022-11-24T00:50:59.375Z,96262.56
2022-11-24T00:53:28.965Z,96267.81
2022-11-24T00:55:57.506Z,96281.66
2022-11-24T00:58:26.163Z,96287.50
2022-11-24T01:00:54.398Z,96280.06
2022-11-24T01:03:22.787Z,96285.94
2022-11-24T01:05:50.859Z,96285.13
2022-11-24T01:08:19.084Z,96297.34
2022-11-24T01:10:48.447Z,96291.22
2022-11-24T01:13:16.686Z,96299.25
2022-11-24T01:15:44.731Z,96306.13
2022-11-24T01:18:13.261Z,96316.56
2022-11-24T01:20:41.251Z,96321.63
2022-11-24T01:23:09.320Z,96331.22
2022-11-24T01:25:40.497Z,96323.22
2022-11-24T01:28:09.800Z,96339.75
2022-11-24T01:30:37.895Z,96344.53
2022-11-24T01:33:06.149Z,96344.53
2022-11-24T01:35:34.120Z,96356.22
2022-11-24T01:38:02.098Z,96351.91
2022-11-24T01:40:30.555Z,96355.09
2022-11-24T01:42:58.526Z,96362.28
2022-11-24T01:45:37.041Z,96362.25
2022-11-24T01:48:07.270Z,96360.38
2022-11-24T01:50:36.296Z,96377.72
2022-11-24T01:53:04.599Z,96374.22
2022-11-24T01:55:35.978Z,96370.47
2022-11-24T01:58:06.733Z,96382.72
2022-11-24T02:00:38.054Z,96389.66
2022-11-24T02:03:06.410Z,96383.53
2022-11-24T02:05:40.176Z,96386.19
2022-11-24T02:08:13.173Z,96383.25
2022-11-24T02:10:44.185Z,96390.75
2022-11-24T02:13:12.284Z,96388.06
2022-11-24T02:15:41.623Z,96384.88
2022-11-24T02:18:09.670Z,96397.97
2022-11-24T02:20:38.116Z,96400.63
2022-11-24T02:23:15.388Z,96399.81
2022-11-24T02:25:49.982Z,96404.56
2022-11-24T02:28:21.357Z,96402.22
2022-11-24T02:30:49.814Z,96413.59
2022-11-24T02:33:18.254Z,96420.56
2022-11-24T02:35:46.300Z,96413.09
2022-11-24T02:38:14.738Z,96401.34
2022-11-24T02:40:44.594Z,96401.91
2022-11-24T02:43:15.402Z,96408.84
2022-11-24T02:45:44.906Z,96406.22
2022-11-24T02:48:14.690Z,96417.63
2022-11-24T02:50:42.835Z,96422.38
2022-11-24T02:53:10.840Z,96430.94
2022-11-24T02:55:38.957Z,96425.84
2022-11-24T02:58:07.173Z,96427.97
2022-11-24T03:00:35.338Z,96434.41
2022-11-24T03:03:05.043Z,96444.53
2022-11-24T03:05:33.055Z,96429.88
2022-11-24T03:08:01.199Z,96435.47
2022-11-24T03:10:29.509Z,96446.94
2022-11-24T03:12:57.569Z,96442.44
2022-11-24T03:15:25.591Z,96440.09
2022-11-24T03:17:55.775Z,96435.00
2022-11-24T03:20:25.620Z,96449.38
2022-11-24T03:22:53.749Z,96438.19
2022-11-24T03:25:21.909Z,96451.50
2022-11-24T03:27:49.887Z,96451.50
2022-11-24T03:30:18.248Z,96451.50
2022-11-24T03:32:46.250Z,96460.84
2022-11-24T03:35:14.325Z,96451.78
2022-11-24T03:37:43.695Z,96468.00
2022-11-24T03:40:12.540Z,96474.88
2022-11-24T03:42:41.065Z,96479.72
2022-11-24T03:45:44.226Z,96477.06
2022-11-24T03:47:58.132Z,96482.06
2022-11-24T03:50:26.222Z,96487.63
2022-11-24T03:52:55.607Z,96496.72
2022-11-24T03:55:23.660Z,96496.72
2022-11-24T03:57:51.668Z,96499.94
2022-11-24T04:00:19.864Z,96506.34
2022-11-24T04:02:48.599Z,96505.56
2022-11-24T04:05:16.872Z,96504.19
2022-11-24T04:07:44.897Z,96501.53
2022-11-24T04:10:14.905Z,96502.38
2022-11-24T04:12:44.815Z,96505.88
2022-11-24T04:15:13.909Z,96504.25
2022-11-24T04:17:42.104Z,96509.59
2022-11-24T04:20:11.668Z,96514.09
2022-11-24T04:22:39.725Z,96512.22
2022-11-24T04:25:09.199Z,96510.63
2022-11-24T04:27:39.164Z,96513.75
2022-11-24T04:30:08.627Z,96511.69
2022-11-24T04:32:36.818Z,96510.81
2022-11-24T04:35:05.047Z,96517.44
2022-11-24T04:37:33.291Z,96517.41
2022-11-24T04:40:01.354Z,96522.22
2022-11-24T04:42:29.505Z,96524.88
2022-11-24T04:44:58.904Z,96530.19
2022-11-24T04:47:27.643Z,96526.44
2022-11-24T04:49:56.047Z,96534.69
2022-11-24T04:52:25.610Z,96531.44
2022-11-24T04:54:53.778Z,96538.75
2022-11-24T04:57:24.194Z,96546.97
2022-11-24T04:59:52.631Z,96550.72
2022-11-24T05:02:22.438Z,96551.53
2022-11-24T05:04:50.920Z,96552.56
2022-11-24T05:07:19.657Z,96550.38
2022-11-24T05:10:05.560Z,96555.53
2022-11-24T05:12:33.647Z,96563.81
2022-11-24T05:15:02.942Z,96563.25
2022-11-24T05:17:34.963Z,96574.53
2022-11-24T05:20:03.411Z,96575.28
2022-11-24T05:22:31.714Z,96573.94
2022-11-24T05:25:00.095Z,96581.66
2022-11-24T05:27:28.166Z,96583.53
2022-11-24T05:29:56.257Z,96575.25
2022-11-24T05:32:24.429Z,96579.50
2022-11-24T05:34:54.649Z,96590.72
2022-11-24T05:37:22.843Z,96583.53
2022-11-24T05:39:50.858Z,96590.16
2022-11-24T05:42:36.358Z,96590.94
2022-11-24T05:45:04.909Z,96584.28
2022-11-24T05:47:34.131Z,96585.63
2022-11-24T05:50:03.564Z,96589.91
2022-11-24T05:52:31.648Z,96589.69
2022-11-24T05:54:59.691Z,96606.00
2022-11-24T05:57:27.782Z,96602.84
2022-11-24T05:59:55.915Z,96602.84
2022-11-24T06:02:24.160Z,96597.78
2022-11-24T06:04:52.271Z,96604.44
2022-11-24T06:07:21.696Z,96614.03
2022-11-24T06:09:49.752Z,96615.31
2022-11-24T06:12:17.832Z,96622.00
2022-11-24T06:14:45.874Z,96620.63
2022-11-24T06:17:13.971Z,96617.69
2022-11-24T06:19:43.678Z,96625.97
2022-11-24T06:22:11.746Z,96637.94
2022-11-24T06:24:41.123Z,96640.06
2022-11-24T06:27:09.142Z,96637.41
2022-11-24T06:29:37.214Z,96648.56
2022-11-24T06:32:05.657Z,96644.34
2022-11-24T06:34:34.095Z,96650.72
2022-11-24T06:37:02.375Z,96660.56
2022-11-24T06:39:30.408Z,96650.19
2022-11-24T06:41:59.959Z,96667.75
2022-11-24T06:44:28.015Z,96665.88
2022-11-24T06:46:56.151Z,96665.59
2022-11-24T06:49:24.270Z,96662.91
2022-11-24T06:51:52.300Z,96660.78
2022-11-24T06:54:21.146Z,96666.91
2022-11-24T06:56:49.204Z,96672.78
2022-11-24T06:59:20.539Z,96672.25
2022-11-24T07:01:48.744Z,96666.91
2022-11-24T07:04:17.062Z,96667.69
2022-11-24T07:06:45.128Z,96669.25
2022-11-24T07:09:14.449Z,96664.44
2022-11-24T07:11:42.611Z,96669.00
2022-11-24T07:14:10.858Z,96659.66
2022-11-24T07:16:40.622Z,96666.63
2022-11-24T07:19:10.984Z,96672.47
2022-11-24T07:21:39.042Z,96672.47
2022-11-24T07:24:07.859Z,96672.75
2022-11-24T07:26:37.484Z,96678.84
2022-11-24T07:29:06.035Z,96679.66
2022-11-24T07:31:34.229Z,96683.09
2022-11-24T07:34:03.684Z,96686.84
2022-11-24T07:36:31.919Z,96680.44
2022-11-24T07:39:00.018Z,96686.28
2022-11-24T07:41:28.027Z,96691.88
2022-11-24T07:43:56.793Z,96695.34
2022-11-24T07:46:24.924Z,96690.50
2022-11-24T07:48:53.026Z,96686.50
2022-11-24T07:51:22.470Z,96683.56
2022-11-24T07:53:50.518Z,96693.44
2022-11-24T07:56:18.622Z,96688.38
2022-11-24T07:58:52.484Z,96689.66
2022-11-24T08:01:21.292Z,96686.50
2022-11-24T08:03:49.502Z,96690.72
2022-11-24T08:06:29.003Z,96680.06
2022-11-24T08:09:01.922Z,96676.50
2022-11-24T08:11:31.417Z,96681.31
2022-11-24T08:13:59.739Z,96687.16
2022-11-24T08:16:27.856Z,96686.63
2022-11-24T08:18:57.065Z,96690.59
2022-11-24T08:21:25.785Z,96694.28
2022-11-24T08:23:56.065Z,96699.31
2022-11-24T08:26:25.799Z,96689.88
2022-11-24T08:28:56.426Z,96687.41
2022-11-24T08:31:27.660Z,96694.03
2022-11-24T08:33:56.442Z,96689.41
2022-11-24T08:36:24.581Z,96684.75
2022-11-24T08:38:56.116Z,96698.06
2022-11-24T08:41:26.257Z,96693.53
2022-11-24T08:43:54.341Z,96696.16
2022-11-24T08:46:22.612Z,96693.78
2022-11-24T08:48:53.217Z,96699.94
2022-11-24T08:51:22.431Z,96696.94
2022-11-24T08:53:50.727Z,96703.09
2022-11-24T08:56:18.813Z,96701.97
2022-11-24T08:58:48.337Z,96700.34
2022-11-24T09:01:18.246Z,96699.25
2022-11-24T09:03:50.952Z,96696.06
2022-11-24T09:06:20.072Z,96693.91
2022-11-24T09:08:48.567Z,96687.72
2022-11-24T09:11:17.400Z,96684.69
2022-11-24T09:13:46.103Z,96689.69
2022-11-24T09:16:16.959Z,96691.56
2022-11-24T09:18:45.744Z,96684.09
2022-11-24T09:21:16.006Z,96688.06
2022-11-24T09:23:45.208Z,96699.06
2022-11-24T09:26:15.485Z,96696.94
2022-11-24T09:28:44.053Z,96703.81
2022-11-24T09:31:14.175Z,96691.66
2022-11-24T09:33:44.320Z,96691.66
2022-11-24T09:36:12.529Z,96707.41
2022-11-24T09:38:40.650Z,96703.09
2022-11-24T09:41:36.068Z,96700.41
2022-11-24T09:44:09.669Z,96701.00
2022-11-24T09:46:42.771Z,96702.00
2022-11-24T09:49:15.443Z,96707.81
2022-11-24T09:51:45.460Z,96706.16
2022-11-24T09:54:18.074Z,96703.94
2022-11-24T09:56:47.741Z,96704.94
2022-11-24T09:59:17.795Z,96705.19
2022-11-24T10:01:47.102Z,96709.75
2022-11-24T10:04:19.837Z,96706.06
2022-11-24T10:06:53.269Z,96703.75
2022-11-24T10:09:34.259Z,96708.25
2022-11-24T10:12:13.678Z,96702.97
2022-11-24T10:14:59.437Z,96701.56
2022-11-24T10:17:38.033Z,96707.13
2022-11-24T10:20:12.256Z,96712.13
2022-11-24T10:22:47.851Z,96710.19
2022-11-24T10:25:22.847Z,96717.34
2022-11-24T10:27:56.366Z,96715.47
2022-11-24T10:30:24.919Z,96712.50
2022-11-24T10:32:57.377Z,96718.22
2022-11-24T10:35:30.254Z,96707.78
2022-11-24T10:38:08.903Z,96706.53
2022-11-24T10:40:56.416Z,96712.47
2022-11-24T10:43:27.414Z,96713.28
2022-11-24T10:45:56.368Z,96718.03
2022-11-24T10:48:27.310Z,96707.41
2022-11-24T10:51:02.384Z,96724.50
2022-11-24T10:53:31.523Z,96727.75
2022-11-24T10:56:04.961Z,96730.69
2022-11-24T10:58:37.619Z,96730.44
2022-11-24T11:01:22.332Z,96722.69
2022-11-24T11:03:52.828Z,96739.56
2022-11-24T11:06:24.732Z,96744.75
2022-11-24T11:09:17.531Z,96754.16
2022-11-24T11:11:48.268Z,96769.28
2022-11-24T11:14:30.984Z,96766.31
2022-11-24T11:16:59.301Z,96774.16
2022-11-24T11:19:48.356Z,96776.44
2022-11-24T11:22:25.563Z,96777.91
2022-11-24T11:25:05.249Z,96784.56
2022-11-24T11:27:33.400Z,96783.59
2022-11-24T11:36:10.907Z,96772.75
2022-11-24T11:38:41.639Z,96763.38
2022-11-24T11:41:18.894Z,96770.59
2022-11-24T11:43:49.756Z,96770.75
2022-11-24T11:46:17.984Z,96778.78
2022-11-24T11:48:47.413Z,96769.69
2022-11-24T11:51:31.872Z,96782.53
2022-11-24T11:54:06.523Z,96779.91
2022-11-24T11:56:37.322Z,96779.53
2022-11-24T11:59:25.333Z,96782.84
2022-11-24T12:02:29.154Z,96775.31
2022-11-24T12:04:59.455Z,96773.72
2022-11-24T12:07:42.282Z,96778.25
2022-11-24T12:10:19.141Z,96781.97
2022-11-24T12:12:59.940Z,96781.41
2022-11-24T12:15:33.837Z,96784.03
2022-11-24T12:18:33.133Z,96781.13
2022-11-24T12:21:07.781Z,96784.94
2022-11-24T12:23:44.062Z,96783.91
2022-11-24T12:26:20.230Z,96783.69
2022-11-24T12:28:55.209Z,96793.38
2022-11-24T12:31:27.348Z,96789.09
2022-11-24T12:34:22.625Z,96795.94
2022-11-24T12:37:12.690Z,96800.16
2022-11-24T12:39:46.833Z,96807.13
2022-11-24T12:42:26.208Z,96801.25
2022-11-24T12:45:15.537Z,96802.00
2022-11-24T12:47:58.902Z,96813.84
2022-11-24T12:50:29.282Z,96809.25
2022-11-24T12:53:01.505Z,96811.94
2022-11-24T12:55:32.190Z,96809.53
2022-11-24T12:58:11.218Z,96808.72
2022-11-24T13:00:48.922Z,96816.16
2022-11-24T13:03:26.036Z,96809.25
2022-11-24T13:05:58.833Z,96811.94
2022-11-24T13:08:27.497Z,96812.16
2022-11-24T13:10:57.323Z,96817.22
2022-11-24T13:13:30.407Z,96826.25
2022-11-24T13:19:15.094Z,96813.88
2022-11-24T13:21:51.949Z,96824.34
2022-11-24T13:24:24.440Z,96824.13
2022-11-24T13:26:54.500Z,96830.75
2022-11-24T13:29:35.806Z,96828.41
2022-11-24T13:32:40.176Z,96823.63
2022-11-24T13:35:15.162Z,96831.63
2022-11-24T13:37:51.525Z,96834.34
2022-11-24T13:40:45.865Z,96833.75
2022-11-24T13:43:23.995Z,96838.28
2022-11-24T13:45:54.633Z,96838.88
2022-11-24T13:48:54.895Z,96852.53
2022-11-24T13:51:24.859Z,96855.16
2022-11-24T13:53:54.948Z,96853.91
2022-11-24T13:56:26.572Z,96856.84
2022-11-24T13:58:56.765Z,96858.44
2022-11-24T14:01:28.382Z,96853.09
2022-11-24T14:04:29.472Z,96864.09
2022-11-24T14:07:02.511Z,96854.75
2022-11-24T14:09:37.036Z,96859.56
2022-11-24T14:12:14.940Z,96871.91
2022-11-24T14:14:44.164Z,96857.47
2022-11-24T14:17:22.841Z,96861.28
2022-11-24T14:19:52.756Z,96862.09
2022-11-24T14:22:22.973Z,96874.34
2022-11-24T14:24:55.803Z,96876.22
2022-11-24T14:27:29.341Z,96873.56
2022-11-24T14:29:59.018Z,96874.63
2022-11-24T14:32:28.619Z,96874.63
2022-11-24T14:34:57.944Z,96867.13
2022-11-24T14:37:26.109Z,96866.59
2022-11-24T14:39:54.270Z,96869.84
2022-11-24T14:42:23.586Z,96868.28
2022-11-24T14:44:54.145Z,96869.88
2022-11-24T14:47:31.863Z,96867.25
2022-11-24T14:50:10.104Z,96871.50
2022-11-24T14:52:45.390Z,96879.00
2022-11-24T14:55:26.659Z,96875.53
2022-11-24T14:57:54.856Z,96880.09
2022-11-24T15:00:28.436Z,96894.03
2022-11-24T15:03:13.523Z,96891.91
2022-11-24T15:06:00.475Z,96895.63
2022-11-24T15:08:30.105Z,96896.19
2022-11-24T15:11:00.326Z,96892.19
2022-11-24T15:13:28.961Z,96887.59
2022-11-24T15:16:02.827Z,96899.34
2022-11-24T15:18:38.662Z,96910.56
2022-11-24T15:21:07.040Z,96921.72
2022-11-24T15:23:35.858Z,96916.38
2022-11-24T15:26:30.718Z,96921.78
2022-11-24T15:29:01.164Z,96923.78
2022-11-24T15:31:29.270Z,96914.69
2022-11-24T15:33:58.689Z,96929.41
2022-11-24T15:36:26.780Z,96927.78
2022-11-24T15:38:56.084Z,96927.25
2022-11-24T15:41:30.052Z,96930.72
2022-11-24T15:43:59.876Z,96933.69
2022-11-24T15:46:28.584Z,96945.50
2022-11-24T15:48:58.127Z,96953.53
2022-11-24T15:51:27.275Z,96959.94
2022-11-24T15:54:00.735Z,96958.63
2022-11-24T15:56:32.365Z,96950.34
2022-11-24T15:59:00.490Z,96954.63
2022-11-24T16:01:30.408Z,96962.09
2022-11-24T16:03:59.874Z,96965.03
2022-11-24T16:06:27.918Z,96971.16
2022-11-24T16:08:56.091Z,96973.31
2022-11-24T16:11:24.257Z,96969.28
2022-11-24T16:13:53.919Z,96968.78
2022-11-24T16:16:22.977Z,96971.72
2022-11-24T16:18:51.176Z,96979.47
2022-11-24T16:21:20.605Z,96974.38
2022-11-24T16:23:48.812Z,96976.00
2022-11-24T16:26:16.945Z,96971.19
2022-11-24T16:28:45.826Z,96980.78
2022-11-24T16:31:16.058Z,96976.50
2022-11-24T16:33:44.785Z,96977.06
2022-11-24T16:36:13.282Z,96981.88
2022-11-24T16:38:42.896Z,96987.72
2022-11-24T16:41:11.056Z,96990.41
2022-11-24T16:43:39.609Z,96998.13
2022-11-24T16:46:32.921Z,97000.00
2022-11-24T16:49:01.585Z,97002.66
2022-11-24T16:51:34.633Z,97002.13
2022-11-24T16:54:05.376Z,97003.22
2022-11-24T16:56:33.426Z,96998.41
2022-11-24T16:59:01.554Z,97004.81
2022-11-24T17:01:30.600Z,97000.00
2022-11-24T17:03:58.619Z,97006.13
2022-11-24T17:06:26.896Z,96998.09
2022-11-24T17:08:56.476Z,97009.59
2022-11-24T17:11:27.665Z,97007.44
2022-11-24T17:13:57.238Z,97003.19
2022-11-24T17:16:26.600Z,97004.75
2022-11-24T17:18:54.845Z,97002.63
2022-11-24T17:21:24.820Z,97005.28
2022-11-24T17:23:54.650Z,97000.22
2022-11-24T17:26:23.009Z,97009.03
2022-11-24T17:28:52.670Z,97010.66
2022-11-24T17:31:22.654Z,97008.00
2022-11-24T17:33:51.377Z,97008.28
2022-11-24T17:36:19.833Z,97010.69
2022-11-24T17:38:49.395Z,97019.22
2022-11-24T17:41:17.520Z,97015.75
2022-11-24T17:43:49.360Z,97017.34
2022-11-24T17:46:19.691Z,97020.25
2022-11-24T17:48:47.991Z,97017.59
2022-11-24T17:51:17.455Z,97018.69
2022-11-24T17:53:46.983Z,97013.06
2022-11-24T17:56:16.801Z,97016.53
2022-11-24T17:58:45.391Z,97023.47
2022-11-24T18:01:14.352Z,97013.34
2022-11-24T18:03:46.670Z,97017.06
2022-11-24T18:06:18.197Z,97012.00
2022-11-24T18:08:47.947Z,97020.81
2022-11-24T18:11:17.390Z,97013.06
2022-11-24T18:14:02.171Z,97025.34
2022-11-24T18:16:31.750Z,97021.88
2022-11-24T18:19:10.795Z,97026.16
2022-11-24T18:21:47.613Z,97021.88
2022-11-24T18:24:19.791Z,97030.41
2022-11-24T18:26:51.933Z,97030.94
2022-11-24T18:29:20.076Z,97028.00
2022-11-24T18:31:48.334Z,97038.16
2022-11-24T18:34:17.908Z,97036.25
2022-11-24T18:36:47.516Z,97033.03
2022-11-24T18:39:18.060Z,97040.00
2022-11-24T18:41:46.462Z,97033.59
2022-11-24T18:44:14.630Z,97036.25
2022-11-24T18:46:42.746Z,97035.19
2022-11-24T18:49:10.856Z,97033.84
2022-11-24T18:51:40.453Z,97037.56
2022-11-24T18:54:08.765Z,97029.88
2022-11-24T18:56:36.999Z,97030.88
2022-11-24T18:59:05.205Z,97028.19
2022-11-24T19:01:33.558Z,97034.31
2022-11-24T19:04:03.058Z,97034.03
2022-11-24T19:06:33.057Z,97029.75
2022-11-24T19:09:04.554Z,97031.88
2022-11-24T19:11:35.324Z,97039.63
2022-11-24T19:14:05.066Z,97038.56
2022-11-24T19:16:33.585Z,97035.38
2022-11-24T19:19:03.028Z,97035.91
2022-11-24T19:21:32.756Z,97036.72
2022-11-24T19:24:05.310Z,97038.84
2022-11-24T19:26:34.954Z,97033.97
2022-11-24T19:29:03.515Z,97032.88
2022-11-24T19:31:32.141Z,97036.06
2022-11-24T19:34:00.797Z,97037.06
2022-11-24T19:36:28.971Z,97042.69
2022-11-24T19:38:58.193Z,97040.25
2022-11-24T19:41:29.493Z,97047.69
2022-11-24T19:43:58.622Z,97043.59
2022-11-24T19:46:29.269Z,97049.16
2022-11-24T19:49:00.541Z,97056.81
2022-11-24T19:51:30.650Z,97044.66
2022-11-24T19:53:59.304Z,97044.34
2022-11-24T19:56:30.993Z,97042.19
2022-11-24T19:58:59.140Z,97042.66
2022-11-24T20:01:29.187Z,97044.28
2022-11-24T20:03:59.186Z,97040.25
2022-11-24T20:06:28.179Z,97041.84
2022-11-24T20:08:56.434Z,97040.47
2022-11-24T20:11:24.682Z,97038.59
2022-11-24T20:13:54.338Z,97045.78
2022-11-24T20:16:26.519Z,97042.28
2022-11-24T20:18:55.692Z,97045.16
2022-11-24T20:21:25.306Z,97046.75
2022-11-24T20:23:55.882Z,97052.59
2022-11-24T20:26:25.881Z,97045.13
2022-11-24T20:28:56.440Z,97048.81
2022-11-24T20:31:26.749Z,97053.69
2022-11-24T20:33:55.086Z,97048.31
2022-11-24T20:36:25.597Z,97051.47
2022-11-24T20:38:54.350Z,97052.22
2022-11-24T20:41:24.172Z,97045.81
2022-11-24T20:43:52.949Z,97054.88
2022-11-24T20:46:23.568Z,97049.59
2022-11-24T20:48:52.086Z,97055.09
2022-11-24T20:51:23.446Z,97064.38
2022-11-24T20:53:52.387Z,97065.97
2022-11-24T20:56:22.004Z,97061.38
2022-11-24T20:58:50.062Z,97064.03
2022-11-24T21:01:19.706Z,97056.50
2022-11-24T21:03:53.403Z,97047.44
2022-11-24T21:06:21.675Z,97059.16
2022-11-24T21:08:50.493Z,97061.50
2022-11-24T21:11:19.621Z,97060.94
2022-11-24T21:13:48.718Z,97065.91
2022-11-24T21:16:18.620Z,97067.50
2022-11-24T21:18:50.657Z,97070.91
2022-11-24T21:21:19.357Z,97066.31
2022-11-24T21:23:47.795Z,97063.28
2022-11-24T21:26:17.297Z,97068.78
2022-11-24T21:28:46.873Z,97062.47
2022-11-24T21:31:17.113Z,97059.22
2022-11-24T21:33:46.588Z,97062.44
2022-11-24T21:36:18.043Z,97058.44
2022-11-24T21:38:51.021Z,97061.56
2022-11-24T21:41:19.927Z,97066.06
2022-11-24T21:43:48.067Z,97063.38
2022-11-24T21:46:16.185Z,97063.06
2022-11-24T21:48:45.340Z,97061.47
2022-11-24T21:51:15.708Z,97060.66
2022-11-24T21:53:46.528Z,97052.06
2022-11-24T21:56:17.053Z,97056.81
2022-11-24T21:58:47.167Z,97062.13
2022-11-24T22:01:16.380Z,97069.03
2022-11-24T22:03:45.721Z,97063.44
2022-11-24T22:06:14.209Z,97062.63
2022-11-24T22:08:42.376Z,97061.53
2022-11-24T22:11:13.866Z,97055.59
2022-11-24T22:13:42.514Z,97062.56
2022-11-24T22:16:12.627Z,97066.34
2022-11-24T22:18:42.046Z,97062.63
2022-11-24T22:21:13.525Z,97057.28
2022-11-24T22:23:41.897Z,97060.91
2022-11-24T22:26:14.447Z,97056.41
2022-11-24T22:28:43.246Z,97057.56
2022-11-24T22:31:13.105Z,97063.34
2022-11-24T22:33:41.356Z,97055.56
2022-11-24T22:36:10.676Z,97054.22
2022-11-24T22:38:39.034Z,97048.06
2022-11-24T22:41:08.482Z,97056.81
2022-11-24T22:43:40.433Z,97056.41
2022-11-24T22:46:10.986Z,97057.78
2022-11-24T22:48:39.615Z,97050.75
2022-11-24T22:51:09.140Z,97060.25
2022-11-24T22:53:37.411Z,97058.31
2022-11-24T22:56:07.281Z,97063.13
2022-11-24T22:58:35.350Z,97057.88
2022-11-24T23:01:08.473Z,97061.69
2022-11-24T23:03:37.407Z,97066.34
2022-11-24T23:06:07.229Z,97052.06
2022-11-24T23:08:36.588Z,97055.25
2022-11-24T23:11:06.343Z,97048.81
2022-11-24T23:13:34.435Z,97051.41
2022-11-24T23:16:03.826Z,97054.13
2022-11-24T23:18:33.559Z,97051.47
2022-11-24T23:21:06.414Z,97055.03
2022-11-24T23:23:34.682Z,97052.06
2022-11-24T23:26:03.083Z,97056.56
2022-11-24T23:28:31.193Z,97056.00
2022-11-24T23:31:02.505Z,97059.69
2022-11-24T23:33:31.092Z,97052.69
2022-11-24T23:36:03.065Z,97063.44
2022-11-24T23:38:32.762Z,97067.56
2022-11-24T23:41:04.146Z,97057.91
2022-11-24T23:43:32.542Z,97058.16
2022-11-24T23:46:04.125Z,97049.31
2022-11-24T23:48:32.535Z,97054.53
2022-11-24T23:51:06.088Z,97058.63
2022-11-24T23:53:34.547Z,97055.63
2022-11-24T23:56:02.604Z,97052.69
2022-11-24T23:58:31.509Z,97051.88
